Time;durP1;ratioP1;P1;durP2;ratioP2;P2;SDS_P1;SDS_P2;PMS_P1;PMS_P2;Temp;Humidity;BMP_temperature;BMP_pressure;BME280_temperature;BME280_humidity;BME280_pressure;Samples;Min_cycle;Max_cycle;Signal;HPM_P1;HPM_P2
2022/03/26 00:00:57;;;;;;;212.60;88.60;;;;;;;0.19;59.26;99726.02;108514;1271;25533;-71
2022/03/26 00:03:24;;;;;;;179.00;74.10;;;;;;;0.18;59.19;99728.43;108430;1271;22555;-71
2022/03/26 00:05:51;;;;;;;189.60;82.00;;;;;;;0.20;58.93;99726.52;108432;1271;22606;-71
2022/03/26 00:08:18;;;;;;;190.60;81.90;;;;;;;0.20;59.43;99728.74;108424;1271;22632;-71
2022/03/26 00:10:45;;;;;;;205.60;82.20;;;;;;;0.20;60.38;99726.01;108438;1271;22538;-71
2022/03/26 00:13:13;;;;;;;206.50;83.60;;;;;;;0.17;60.74;99724.84;108406;1271;24440;-71
2022/03/26 00:15:41;;;;;;;203.80;85.10;;;;;;;0.15;60.42;99723.31;108405;1271;22593;-71
2022/03/26 00:18:08;;;;;;;198.40;84.20;;;;;;;0.11;60.42;99724.35;108423;1271;22706;-72
2022/03/26 00:20:35;;;;;;;207.30;86.00;;;;;;;0.08;60.10;99720.78;108412;1271;26244;-74
2022/03/26 00:23:02;;;;;;;199.20;87.40;;;;;;;0.04;60.04;99719.94;108441;1270;22775;-77
2022/03/26 00:25:29;;;;;;;206.60;84.80;;;;;;;-0.01;60.41;99716.73;108473;1270;22525;-76
2022/03/26 00:27:56;;;;;;;196.20;87.50;;;;;;;-0.04;60.11;99714.50;108411;1271;22565;-76
2022/03/26 00:30:23;;;;;;;198.10;85.00;;;;;;;-0.07;60.56;99710.58;108403;1270;22553;-72
2022/03/26 00:32:50;;;;;;;202.60;86.00;;;;;;;-0.09;59.73;99707.34;108437;1271;22556;-71
2022/03/26 00:35:17;;;;;;;187.20;79.00;;;;;;;-0.11;59.80;99709.23;108323;1271;22705;-70
2022/03/26 00:37:44;;;;;;;186.80;82.90;;;;;;;-0.09;59.81;99709.73;108326;1271;22719;-72
2022/03/26 00:40:13;;;;;;;199.70;86.70;;;;;;;-0.09;60.73;99713.15;108354;1271;22568;-71
2022/03/26 00:42:41;;;;;;;192.10;85.10;;;;;;;-0.11;61.79;99714.38;108349;1271;22703;-74
2022/03/26 00:45:09;;;;;;;210.00;90.00;;;;;;;-0.14;61.76;99713.86;108354;1270;22722;-71
2022/03/26 00:47:36;;;;;;;202.00;88.50;;;;;;;-0.15;61.74;99709.24;108366;1271;22557;-74
2022/03/26 00:50:03;;;;;;;205.30;87.60;;;;;;;-0.17;61.72;99708.40;108374;1271;22562;-72
2022/03/26 00:52:30;;;;;;;200.60;85.50;;;;;;;-0.18;61.72;99707.05;108385;1271;22681;-71
2022/03/26 00:54:57;;;;;;;206.40;87.10;;;;;;;-0.20;61.24;99707.05;108397;1271;22586;-71
2022/03/26 00:57:24;;;;;;;201.10;85.70;;;;;;;-0.22;60.80;99710.14;108377;1271;22528;-71
2022/03/26 00:59:51;;;;;;;193.10;86.20;;;;;;;-0.26;60.88;99711.19;108377;1271;23125;-73
2022/03/26 01:02:18;;;;;;;179.60;77.70;;;;;;;-0.30;60.78;99710.87;108370;1271;25357;-81
2022/03/26 01:04:45;;;;;;;174.80;77.80;;;;;;;-0.29;61.21;99710.70;108336;1271;22559;-71
2022/03/26 01:07:12;;;;;;;174.70;80.00;;;;;;;-0.29;62.11;99713.27;108332;1271;22528;-83
2022/03/26 01:09:39;;;;;;;179.80;76.90;;;;;;;-0.33;63.06;99712.75;108339;1271;22547;-71
2022/03/26 01:12:07;;;;;;;183.70;81.40;;;;;;;-0.37;63.21;99716.21;108365;1271;22580;-71
2022/03/26 01:14:34;;;;;;;192.50;82.20;;;;;;;-0.41;63.02;99717.06;108925;1271;22542;-73
2022/03/26 01:17:01;;;;;;;187.00;83.00;;;;;;;-0.45;63.04;99710.25;108322;1271;22691;-81
2022/03/26 01:19:28;;;;;;;194.10;86.30;;;;;;;-0.49;62.78;99711.11;108342;1271;22547;-71
2022/03/26 01:21:55;;;;;;;194.70;85.60;;;;;;;-0.52;62.64;99710.27;108362;1271;25801;-71
2022/03/26 01:24:22;;;;;;;175.40;76.80;;;;;;;-0.56;62.38;99709.95;108388;1271;22653;-76
2022/03/26 01:26:49;;;;;;;188.00;83.60;;;;;;;-0.55;62.65;99705.16;108436;1271;23210;-75
2022/03/26 01:29:38;;;;;;;191.10;85.20;;;;;;;-0.55;63.35;99709.60;109765;1263;22606;31
2022/03/26 01:32:07;;;;;;;184.30;80.70;;;;;;;-0.58;64.31;99711.83;108240;1276;22550;-70
2022/03/26 01:34:35;;;;;;;182.60;84.20;;;;;;;-0.62;64.47;99708.25;108321;1279;22677;-71
2022/03/26 01:37:03;;;;;;;195.20;88.80;;;;;;;-0.64;64.17;99709.80;108315;1279;22562;-70
2022/03/26 01:39:31;;;;;;;187.20;84.30;;;;;;;-0.67;63.89;99711.17;108337;1279;22540;-70
2022/03/26 01:42:02;;;;;;;187.10;88.00;;;;;;;-0.71;63.62;99709.13;108316;1279;22626;-70
2022/03/26 01:44:29;;;;;;;189.40;86.50;;;;;;;-0.75;63.94;99703.67;108321;1279;22748;-70
2022/03/26 01:46:57;;;;;;;196.00;94.50;;;;;;;-0.77;63.30;99701.27;108310;1279;22562;-70
2022/03/26 01:49:24;;;;;;;184.10;87.90;;;;;;;-0.78;63.41;99704.86;108290;1279;22563;-70
2022/03/26 01:51:51;;;;;;;190.30;91.60;;;;;;;-0.76;63.23;99702.30;108304;1279;22708;-70
2022/03/26 01:54:19;;;;;;;189.10;90.80;;;;;;;-0.74;63.81;99702.81;108336;1279;22566;-70
2022/03/26 01:56:47;;;;;;;184.90;88.80;;;;;;;-0.74;64.54;99703.33;108160;1279;237036;-70
2022/03/26 01:59:14;;;;;;;192.90;95.00;;;;;;;-0.76;64.77;99706.58;108281;1279;22638;-70
2022/03/26 02:01:42;;;;;;;211.50;101.30;;;;;;;-0.77;64.51;99705.89;108300;1279;22549;-70
2022/03/26 02:04:09;;;;;;;193.70;92.00;;;;;;;-0.78;64.30;99704.52;108269;1279;22558;-71
2022/03/26 02:06:39;;;;;;;190.80;87.90;;;;;;;-0.79;64.04;99702.30;108292;1279;22686;-70
2022/03/26 02:09:10;;;;;;;197.80;90.60;;;;;;;-0.79;63.88;99697.34;108285;1279;22556;-70
2022/03/26 02:11:40;;;;;;;190.30;90.70;;;;;;;-0.81;63.84;99698.05;108301;1279;22540;-69
2022/03/26 02:14:09;;;;;;;179.20;84.00;;;;;;;-0.82;63.48;99698.22;108291;1279;22695;-71
2022/03/26 02:16:38;;;;;;;169.00;80.70;;;;;;;-0.80;63.58;99697.85;108297;1279;22541;-71
2022/03/26 02:19:06;;;;;;;182.40;80.40;;;;;;;-0.79;64.49;99701.95;108279;1279;23728;-71
2022/03/26 02:21:35;;;;;;;170.90;81.70;;;;;;;-0.80;65.05;99696.66;108302;1279;23989;-71
2022/03/26 02:24:06;;;;;;;185.20;82.60;;;;;;;-0.81;65.25;99698.21;108302;1279;24313;-70
2022/03/26 02:26:33;;;;;;;170.60;83.00;;;;;;;-0.83;65.01;99698.05;108284;1281;22536;-71
2022/03/26 02:29:11;;;;;;;197.90;84.80;;;;;;;-0.85;64.81;99695.14;108283;1281;22547;-71
2022/03/26 02:31:39;;;;;;;174.60;79.10;;;;;;;-0.87;64.82;99694.96;108278;1281;22556;-70
2022/03/26 02:34:07;;;;;;;188.40;84.10;;;;;;;-0.89;64.81;99695.99;108154;1281;22623;-70
2022/03/26 02:36:35;;;;;;;184.00;86.50;;;;;;;-0.91;64.44;99697.21;108297;1280;22560;-71
2022/03/26 02:39:05;;;;;;;172.30;80.00;;;;;;;-0.93;64.08;99701.66;108298;1280;22552;-70
2022/03/26 02:41:35;;;;;;;176.10;81.70;;;;;;;-0.92;64.43;99701.14;108307;1279;25430;-70
2022/03/26 02:44:04;;;;;;;170.00;83.20;;;;;;;-0.91;65.24;99702.00;108279;1279;22547;-70
2022/03/26 02:46:31;;;;;;;180.40;82.80;;;;;;;-0.93;65.89;99703.20;108307;1279;22716;-70
2022/03/26 02:48:58;;;;;;;183.70;84.90;;;;;;;-0.95;65.93;99705.41;108282;1281;22544;-71
2022/03/26 02:51:25;;;;;;;195.50;89.40;;;;;;;-0.98;66.00;99699.09;108285;1281;26577;-70
2022/03/26 02:53:52;;;;;;;185.80;87.40;;;;;;;-0.98;65.77;99698.07;108287;1280;26667;-70
2022/03/26 02:56:20;;;;;;;170.40;81.50;;;;;;;-1.00;65.62;99698.95;108299;1279;22544;-70
2022/03/26 02:58:48;;;;;;;181.10;81.10;;;;;;;-1.03;65.37;99696.88;108294;1280;24302;-70
2022/03/26 03:01:16;;;;;;;179.50;77.80;;;;;;;-1.04;65.09;99699.61;108267;1279;22558;-71
2022/03/26 03:03:43;;;;;;;165.20;75.50;;;;;;;-1.06;65.22;99699.29;108285;1281;22655;-70
2022/03/26 03:06:10;;;;;;;171.70;73.70;;;;;;;-1.03;65.17;99696.38;108282;1279;22648;-70
2022/03/26 03:08:37;;;;;;;161.50;72.20;;;;;;;-1.00;65.62;99695.70;108298;1281;22536;-70
2022/03/26 03:11:04;;;;;;;159.70;72.80;;;;;;;-0.98;66.30;99692.95;108311;1281;22649;-70
2022/03/26 03:13:31;;;;;;;176.20;76.10;;;;;;;-1.01;66.65;99696.03;108291;1280;22536;-70
2022/03/26 03:15:58;;;;;;;159.90;74.10;;;;;;;-1.03;66.43;99694.15;108288;1279;22549;-70
2022/03/26 03:18:25;;;;;;;167.30;75.20;;;;;;;-1.05;66.22;99694.83;108286;1281;22550;-70
2022/03/26 03:20:52;;;;;;;163.20;75.40;;;;;;;-1.06;66.11;99691.08;108285;1279;22620;-70
2022/03/26 03:23:19;;;;;;;165.50;74.00;;;;;;;-1.09;65.78;99692.12;108297;1281;22714;-70
2022/03/26 03:25:46;;;;;;;155.90;72.70;;;;;;;-1.10;65.55;99690.23;108263;1281;23913;-70
2022/03/26 03:28:14;;;;;;;167.10;76.60;;;;;;;-1.12;65.54;99688.17;108300;1279;22554;-70
2022/03/26 03:30:41;;;;;;;163.70;77.00;;;;;;;-1.09;65.59;99688.35;108287;1279;22718;-71
2022/03/26 03:33:08;;;;;;;160.30;76.20;;;;;;;-1.08;66.17;99683.57;108301;1281;22605;-70
2022/03/26 03:35:35;;;;;;;151.50;72.60;;;;;;;-1.07;66.91;99680.46;108294;1281;22580;-70
2022/03/26 03:38:02;;;;;;;164.90;74.50;;;;;;;-1.08;67.09;99676.73;108265;1281;22626;-95
2022/03/26 03:40:29;;;;;;;172.50;74.80;;;;;;;-1.10;67.01;99683.40;108293;1281;22538;-71
2022/03/26 03:42:56;;;;;;;166.70;74.00;;;;;;;-1.13;66.90;99683.05;108260;1280;22544;-72
2022/03/26 03:45:23;;;;;;;164.80;75.40;;;;;;;-1.15;66.71;99683.55;108271;1280;22556;-70
2022/03/26 03:47:50;;;;;;;173.00;75.90;;;;;;;-1.16;66.40;99682.89;108283;1281;22688;-71
2022/03/26 03:50:17;;;;;;;171.20;70.40;;;;;;;-1.18;66.60;99678.63;108263;1279;22694;-70
2022/03/26 03:52:45;;;;;;;174.00;73.50;;;;;;;-1.19;66.02;99675.55;108295;1281;24230;-70
2022/03/26 03:55:12;;;;;;;159.40;73.10;;;;;;;-1.14;66.24;99678.09;108296;1278;25258;-70
2022/03/26 03:57:43;;;;;;;150.20;69.20;;;;;;;-1.12;66.85;99680.48;108272;1281;25458;-70
2022/03/26 04:00:13;;;;;;;151.40;68.30;;;;;;;-1.11;67.47;99673.99;108271;1281;22697;-71
2022/03/26 04:02:41;;;;;;;146.60;69.40;;;;;;;-1.13;67.47;99674.34;108262;1279;22570;-72
2022/03/26 04:05:09;;;;;;;161.00;73.40;;;;;;;-1.14;67.39;99674.33;108272;1280;22556;-71
2022/03/26 04:07:38;;;;;;;157.50;72.10;;;;;;;-1.16;67.15;99676.05;108311;1279;22536;-72
2022/03/26 04:10:07;;;;;;;154.00;72.10;;;;;;;-1.18;66.93;99677.25;108286;1281;22623;-71
2022/03/26 04:12:35;;;;;;;159.70;73.10;;;;;;;-1.20;66.70;99673.31;108273;1279;22586;-78
2022/03/26 04:15:04;;;;;;;165.80;72.30;;;;;;;-1.21;66.51;99674.69;108298;1280;22632;-71
2022/03/26 04:17:32;;;;;;;153.90;70.00;;;;;;;-1.20;66.69;99668.20;108280;1281;24233;-70
2022/03/26 04:20:01;;;;;;;138.90;69.60;;;;;;;-1.16;66.85;99666.81;108281;1281;22666;-70
2022/03/26 04:22:29;;;;;;;148.00;67.50;;;;;;;-1.16;67.74;99670.05;108297;1281;22536;-70
2022/03/26 04:24:56;;;;;;;169.60;72.40;;;;;;;-1.17;67.78;99667.00;108146;1281;22561;-71
2022/03/26 04:27:23;;;;;;;173.40;75.10;;;;;;;-1.19;67.65;99666.48;107951;1279;25744;-70
2022/03/26 04:29:50;;;;;;;169.50;73.60;;;;;;;-1.22;67.40;99661.70;107908;1279;22560;-71
2022/03/26 04:32:17;;;;;;;165.60;73.80;;;;;;;-1.27;67.64;99660.34;107955;1281;25371;-71
2022/03/26 04:34:44;;;;;;;256.80;121.30;;;;;;;-1.30;67.31;99661.36;107968;1279;22543;-71
2022/03/26 04:37:11;;;;;;;248.30;112.90;;;;;;;-1.33;67.16;99665.80;107959;1279;26445;-71
2022/03/26 04:39:38;;;;;;;279.90;130.60;;;;;;;-1.32;67.34;99663.92;107906;1278;22660;-70
2022/03/26 04:42:05;;;;;;;267.30;128.70;;;;;;;-1.31;68.04;99664.96;107951;1280;22707;-72
2022/03/26 04:44:32;;;;;;;228.90;110.50;;;;;;;-1.30;68.62;99668.72;107956;1281;22575;-70
2022/03/26 04:47:00;;;;;;;208.80;106.50;;;;;;;-1.32;68.80;99665.13;107955;1279;22689;-70
2022/03/26 04:49:27;;;;;;;212.80;100.40;;;;;;;-1.32;68.65;99660.85;107923;1279;22543;-70
2022/03/26 04:51:54;;;;;;;203.80;97.30;;;;;;;-1.31;68.52;99650.42;107938;1280;23042;-70
2022/03/26 04:54:21;;;;;;;185.10;88.80;;;;;;;-1.28;68.18;99651.29;107958;1279;22581;-70
2022/03/26 04:56:48;;;;;;;178.70;81.80;;;;;;;-1.28;67.95;99650.44;107938;1279;25543;-70
2022/03/26 04:59:15;;;;;;;182.30;82.70;;;;;;;-1.28;68.16;99654.88;107953;1279;22554;-70
2022/03/26 05:01:44;;;;;;;187.20;88.70;;;;;;;-1.25;68.80;99659.81;107941;1281;22579;-71
2022/03/26 05:04:11;;;;;;;189.20;92.80;;;;;;;-1.23;69.69;99662.38;107948;1279;22626;-70
2022/03/26 05:06:38;;;;;;;191.30;91.80;;;;;;;-1.25;70.09;99658.95;107927;1279;22535;-71
2022/03/26 05:09:05;;;;;;;186.20;86.80;;;;;;;-1.25;70.21;99658.27;107925;1279;22535;-70
2022/03/26 05:11:32;;;;;;;186.80;86.00;;;;;;;-1.23;69.99;99659.98;107935;1279;22696;-71
2022/03/26 05:13:59;;;;;;;171.70;80.30;;;;;;;-1.20;69.72;99655.38;107923;1279;24411;-70
2022/03/26 05:16:26;;;;;;;159.70;77.50;;;;;;;-1.16;69.53;99654.85;107951;1279;22624;-70
2022/03/26 05:18:53;;;;;;;156.30;74.20;;;;;;;-1.07;69.51;99651.93;107969;1279;25425;-71
2022/03/26 05:21:21;;;;;;;150.70;72.10;;;;;;;-0.91;69.45;99651.71;107950;1279;22563;-71
2022/03/26 05:23:48;;;;;;;140.30;65.00;;;;;;;-0.72;69.93;99645.66;107942;1279;22684;-71
2022/03/26 05:26:15;;;;;;;135.10;64.50;;;;;;;-0.54;70.59;99646.95;107966;1279;25253;-72
2022/03/26 05:28:42;;;;;;;155.30;71.40;;;;;;;-0.36;70.79;99642.77;107940;1279;22581;-70
2022/03/26 05:31:09;;;;;;;149.60;72.40;;;;;;;-0.19;70.63;99643.35;107948;1279;25328;-71
2022/03/26 05:33:37;;;;;;;155.00;72.20;;;;;;;-0.01;70.41;99644.45;108047;1279;22698;-70
2022/03/26 05:36:04;;;;;;;148.90;77.00;;;;;;;0.14;70.36;99647.41;108035;1279;22617;-71
2022/03/26 05:38:32;;;;;;;170.60;88.00;;;;;;;0.30;70.19;99645.77;108029;1279;25355;-70
2022/03/26 05:40:59;;;;;;;197.80;107.50;;;;;;;0.44;70.07;99647.86;108008;1279;22630;-71
2022/03/26 05:43:26;;;;;;;253.50;137.30;;;;;;;0.57;69.76;99644.86;108006;1279;22694;-72
2022/03/26 05:45:53;;;;;;;227.10;123.60;;;;;;;0.72;69.51;99647.45;108044;1279;22541;-74
2022/03/26 05:48:20;;;;;;;190.90;102.40;;;;;;;0.87;69.24;99646.61;108023;1279;22571;-71
2022/03/26 05:50:47;;;;;;;175.00;92.90;;;;;;;0.99;68.94;99648.55;108030;1279;25461;-71
2022/03/26 05:53:14;;;;;;;160.40;87.90;;;;;;;1.10;68.58;99642.95;108066;1279;22567;-72
2022/03/26 05:55:41;;;;;;;155.50;83.30;;;;;;;1.22;68.07;99641.61;108019;1279;22577;-77
2022/03/26 05:58:08;;;;;;;156.10;81.00;;;;;;;1.33;67.80;99641.65;108051;1279;25938;-71
2022/03/26 06:00:35;;;;;;;151.10;75.70;;;;;;;1.42;67.93;99645.31;108008;1279;22701;-71
2022/03/26 06:03:02;;;;;;;148.10;70.20;;;;;;;1.47;68.53;99645.26;108035;1279;24289;-71
2022/03/26 06:05:30;;;;;;;138.00;67.60;;;;;;;1.49;68.61;99649.88;108012;1279;22555;-71
2022/03/26 06:07:57;;;;;;;124.00;64.80;;;;;;;1.53;68.10;99648.29;108034;1279;22616;-73
2022/03/26 06:10:25;;;;;;;124.70;64.30;;;;;;;1.60;67.80;99650.41;108032;1279;22713;-71
2022/03/26 06:12:51;;;;;;;126.00;64.70;;;;;;;1.70;67.47;99654.40;108056;1279;22677;-77
2022/03/26 06:15:19;;;;;;;123.70;64.40;;;;;;;1.81;67.19;99660.80;108058;1279;24310;-71
2022/03/26 06:17:46;;;;;;;137.10;65.50;;;;;;;1.93;67.01;99662.51;108011;1279;22538;-71
2022/03/26 06:20:13;;;;;;;121.00;60.00;;;;;;;2.07;66.89;99666.10;107994;1279;22692;-71
2022/03/26 06:22:40;;;;;;;123.00;60.90;;;;;;;2.19;66.82;99666.77;108042;1279;22562;-71
2022/03/26 06:25:07;;;;;;;119.20;58.20;;;;;;;2.32;66.59;99664.69;108062;1279;23177;-72
2022/03/26 06:27:35;;;;;;;111.70;52.50;;;;;;;2.47;66.52;99660.48;108019;1279;22596;-72
2022/03/26 06:30:02;;;;;;;90.00;46.00;;;;;;;2.68;66.65;99658.42;108033;1279;22759;-71
2022/03/26 06:32:29;;;;;;;88.30;44.30;;;;;;;2.91;67.21;99662.65;107937;1279;22573;-71
2022/03/26 06:34:56;;;;;;;97.50;45.80;;;;;;;3.13;67.33;99667.40;108053;1279;22536;-71
2022/03/26 06:37:23;;;;;;;109.00;50.80;;;;;;;3.34;66.97;99670.29;108038;1279;22601;-71
2022/03/26 06:39:50;;;;;;;100.60;51.50;;;;;;;3.53;66.42;99666.64;108013;1279;22537;-71
2022/03/26 06:42:17;;;;;;;97.00;49.30;;;;;;;3.72;65.77;99668.48;108043;1279;22640;-71
2022/03/26 06:44:44;;;;;;;94.90;46.70;;;;;;;3.90;65.34;99665.86;108053;1279;22543;-72
2022/03/26 06:47:11;;;;;;;83.10;45.10;;;;;;;4.09;65.12;99667.15;108065;1279;22568;-71
2022/03/26 06:49:39;;;;;;;86.80;42.70;;;;;;;4.29;64.84;99667.04;108004;1279;22605;-71
2022/03/26 06:52:07;;;;;;;74.10;36.90;;;;;;;4.48;64.28;99662.95;108016;1279;22549;-71
2022/03/26 06:54:34;;;;;;;68.70;36.00;;;;;;;4.69;63.70;99664.17;108029;1279;25256;-71
2022/03/26 06:57:01;;;;;;;57.00;29.10;;;;;;;4.87;63.83;99663.52;108041;1279;24460;-71
2022/03/26 06:59:28;;;;;;;59.70;31.80;;;;;;;5.07;62.90;99659.57;108059;1279;22549;-72
2022/03/26 07:01:55;;;;;;;58.00;30.30;;;;;;;5.25;62.65;99661.82;108028;1278;22593;-71
2022/03/26 07:04:22;;;;;;;58.40;31.60;;;;;;;5.43;62.42;99659.45;108034;1279;25078;-71
2022/03/26 07:06:49;;;;;;;55.90;29.00;;;;;;;5.61;61.93;99662.73;108039;1279;22777;-72
2022/03/26 07:09:16;;;;;;;49.50;28.00;;;;;;;5.79;61.02;99664.11;108049;1279;22560;-72
2022/03/26 07:11:43;;;;;;;61.70;29.80;;;;;;;5.94;60.94;99663.34;108044;1279;22537;-72
2022/03/26 07:14:10;;;;;;;50.40;28.00;;;;;;;6.10;60.61;99667.16;108025;1279;23898;-75
2022/03/26 07:16:37;;;;;;;54.40;28.80;;;;;;;6.26;60.63;99662.15;108017;1279;26852;-72
2022/03/26 07:19:04;;;;;;;52.10;27.30;;;;;;;6.43;60.46;99661.98;108029;1278;22649;-71
2022/03/26 07:21:32;;;;;;;53.40;27.90;;;;;;;6.58;59.78;99663.38;108023;1279;25513;-72
2022/03/26 07:23:59;;;;;;;59.00;31.20;;;;;;;6.72;59.43;99660.85;108076;1279;22557;-78
2022/03/26 07:26:26;;;;;;;57.20;30.60;;;;;;;6.86;59.06;99658.98;108063;1278;23334;-72
2022/03/26 07:28:55;;;;;;;52.50;29.20;;;;;;;7.00;59.14;99653.67;108244;1279;24253;-72
2022/03/26 07:31:23;;;;;;;57.10;30.50;;;;;;;7.16;58.85;99655.36;108075;1279;25374;-72
2022/03/26 07:33:50;;;;;;;50.90;28.20;;;;;;;7.32;58.04;99654.60;108071;1279;22561;-72
2022/03/26 07:36:18;;;;;;;54.30;28.50;;;;;;;7.46;58.15;99652.72;107936;1279;22573;-74
2022/03/26 07:38:45;;;;;;;52.60;29.60;;;;;;;7.61;57.46;99644.35;108054;1279;22691;-72
2022/03/26 07:41:12;;;;;;;50.70;27.60;;;;;;;7.76;57.49;99642.94;108025;1279;23078;-70
2022/03/26 07:43:40;;;;;;;51.60;26.40;;;;;;;7.92;57.35;99648.05;108015;1279;23090;-71
2022/03/26 07:46:07;;;;;;;44.50;25.00;;;;;;;8.08;56.73;99649.68;107999;1279;22549;-73
2022/03/26 07:48:34;;;;;;;45.60;25.50;;;;;;;8.23;56.74;99648.05;108023;1279;22579;-77
2022/03/26 07:51:01;;;;;;;43.40;25.10;;;;;;;8.36;56.40;99644.79;108025;1279;22620;-72
2022/03/26 07:53:29;;;;;;;47.20;23.90;;;;;;;8.52;56.12;99646.23;108033;1279;22728;-73
2022/03/26 07:55:57;;;;;;;37.90;22.10;;;;;;;8.65;55.50;99650.53;108061;1279;22606;-73
2022/03/26 07:58:24;;;;;;;38.90;22.90;;;;;;;8.80;55.64;99651.34;108086;1279;22557;-72
2022/03/26 08:00:51;;;;;;;43.20;22.10;;;;;;;8.93;55.37;99645.02;108016;1279;22587;-72
2022/03/26 08:03:18;;;;;;;36.60;21.20;;;;;;;9.07;54.86;99643.20;108043;1279;22669;-72
2022/03/26 08:05:45;;;;;;;39.50;21.20;;;;;;;9.23;54.64;99637.31;107998;1279;22547;-71
2022/03/26 08:08:13;;;;;;;37.00;19.10;;;;;;;9.35;54.76;99638.83;107986;1279;22564;-74
2022/03/26 08:10:40;;;;;;;36.80;19.20;;;;;;;9.54;54.54;99639.75;108016;1279;22545;-76
2022/03/26 08:13:07;;;;;;;34.60;20.30;;;;;;;9.72;54.29;99638.90;108010;1279;22556;-71
2022/03/26 08:15:34;;;;;;;37.60;20.20;;;;;;;9.91;54.01;99643.95;107991;1279;22547;-70
2022/03/26 08:18:03;;;;;;;33.50;18.50;;;;;;;10.03;53.71;99636.95;108002;1279;22548;-71
2022/03/26 08:20:31;;;;;;;33.00;19.40;;;;;;;10.17;53.61;99632.98;108024;1279;22548;-70
2022/03/26 08:22:58;;;;;;;38.50;21.20;;;;;;;10.30;53.29;99629.77;108064;1279;22638;-74
2022/03/26 08:28:12;;;;;;;39.20;20.40;;;;;;;10.60;52.76;99621.00;108069;1279;22610;-70
2022/03/26 08:30:40;;;;;;;36.70;18.10;;;;;;;10.69;52.29;99621.73;108052;1279;22538;-70
2022/03/26 08:33:07;;;;;;;36.50;19.20;;;;;;;10.81;52.23;99617.80;108541;1278;22720;-69
2022/03/26 08:35:36;;;;;;;34.50;18.50;;;;;;;10.95;51.75;99615.38;108051;1279;22634;-70
2022/03/26 08:38:03;;;;;;;38.50;19.00;;;;;;;11.07;51.65;99614.23;108045;1279;22544;-72
2022/03/26 08:40:31;;;;;;;40.80;18.50;;;;;;;11.19;50.98;99611.67;108061;1279;22583;-71
2022/03/26 08:42:59;;;;;;;34.60;17.60;;;;;;;11.30;51.26;99606.91;108028;1279;22537;-71
2022/03/26 08:45:27;;;;;;;33.20;16.90;;;;;;;11.41;50.81;99602.71;108010;1279;22550;-69
2022/03/26 08:47:54;;;;;;;38.10;17.30;;;;;;;11.51;50.52;99604.05;108064;1279;22568;-71
2022/03/26 08:50:23;;;;;;;29.90;17.20;;;;;;;11.59;49.87;99606.77;108021;1279;23064;-71
2022/03/26 08:52:50;;;;;;;29.80;17.30;;;;;;;11.67;49.52;99605.45;108020;1279;22579;-72
2022/03/26 08:55:18;;;;;;;31.10;17.80;;;;;;;11.76;49.33;99601.17;108026;1279;25171;-71
2022/03/26 08:57:45;;;;;;;31.50;17.60;;;;;;;11.85;49.16;99601.38;108053;1279;22547;-71
2022/03/26 09:00:14;;;;;;;30.60;16.60;;;;;;;11.93;49.15;99598.97;107995;1279;22585;-71
2022/03/26 09:02:41;;;;;;;33.80;18.10;;;;;;;12.03;48.86;99598.45;108064;1279;22559;-71
2022/03/26 09:05:09;;;;;;;28.00;15.90;;;;;;;12.12;48.84;99602.29;108023;1279;22588;-76
2022/03/26 09:07:36;;;;;;;26.40;16.00;;;;;;;12.23;48.64;99599.05;108030;1279;22535;-71
2022/03/26 09:10:04;;;;;;;32.10;18.40;;;;;;;12.29;48.09;99597.99;108007;1279;22670;-70
2022/03/26 09:12:32;;;;;;;28.60;16.00;;;;;;;12.35;48.02;99593.13;108119;1279;22601;-77
2022/03/26 09:14:59;;;;;;;27.50;16.30;;;;;;;12.44;47.89;99593.66;108015;1279;22534;-70
2022/03/26 09:17:27;;;;;;;33.80;18.20;;;;;;;12.56;48.18;99591.92;108040;1279;22566;-75
2022/03/26 09:19:54;;;;;;;33.00;18.00;;;;;;;12.65;47.75;99584.23;108013;1279;22757;-71
2022/03/26 09:22:23;;;;;;;27.80;16.40;;;;;;;12.74;47.56;99580.71;108033;1279;22631;-71
2022/03/26 09:24:51;;;;;;;35.40;19.30;;;;;;;12.85;47.04;99579.91;108025;1279;24227;-71
2022/03/26 09:27:18;;;;;;;33.50;20.80;;;;;;;12.91;46.75;99574.45;108004;1279;24227;-76
2022/03/26 09:29:45;;;;;;;32.70;19.00;;;;;;;13.02;46.56;99575.91;108026;1279;25447;-71
2022/03/26 09:32:12;;;;;;;27.30;17.30;;;;;;;13.14;46.67;99572.73;108014;1279;22583;-73
2022/03/26 09:34:40;;;;;;;34.80;21.80;;;;;;;13.28;46.51;99572.08;108065;1279;22648;-72
2022/03/26 09:37:07;;;;;;;30.50;17.00;;;;;;;13.38;45.94;99575.48;108022;1276;22853;-72
2022/03/26 09:39:34;;;;;;;31.30;18.00;;;;;;;13.46;45.82;99569.89;108030;1279;26115;-72
2022/03/26 09:42:03;;;;;;;27.20;17.10;;;;;;;13.53;45.70;99561.58;108061;1279;22702;-70
2022/03/26 09:44:32;;;;;;;27.80;16.50;;;;;;;13.59;45.29;99564.73;108069;1279;22622;-76
2022/03/26 09:47:00;;;;;;;25.60;15.00;;;;;;;13.62;44.68;99555.75;108057;1279;22540;-70
2022/03/26 09:49:28;;;;;;;28.20;15.90;;;;;;;13.63;44.84;99550.96;108073;1279;22565;-72
2022/03/26 09:51:55;;;;;;;30.90;17.10;;;;;;;13.72;44.96;99551.44;107894;1279;22675;-72
2022/03/26 09:54:23;;;;;;;32.60;19.50;;;;;;;13.83;44.40;99555.96;108033;1279;22571;-72
2022/03/26 09:56:50;;;;;;;26.60;16.20;;;;;;;13.90;44.14;99549.75;108105;1279;22563;-70
2022/03/26 09:59:21;;;;;;;28.40;15.40;;;;;;;13.90;43.63;99546.77;108032;1279;22565;-70
2022/03/26 10:01:49;;;;;;;26.60;15.60;;;;;;;13.92;43.44;99541.77;108029;1279;22577;-71
2022/03/26 10:04:18;;;;;;;27.60;15.60;;;;;;;13.96;43.06;99546.56;108211;1279;22532;-70
2022/03/26 10:06:55;;;;;;;26.30;14.20;;;;;;;14.02;43.07;99547.96;108195;1279;22543;-70
2022/03/26 10:09:28;;;;;;;23.60;14.00;;;;;;;14.10;42.78;99545.15;108167;1279;22600;-70
2022/03/26 10:12:19;;;;;;;26.00;14.80;;;;;;;14.20;42.91;99543.27;108211;1279;25486;-70
2022/03/26 10:14:57;;;;;;;23.90;14.60;;;;;;;14.31;42.43;99538.71;108293;1279;22534;-70
2022/03/26 10:17:29;;;;;;;22.10;13.10;;;;;;;14.32;42.06;99535.29;108311;1279;24238;-70
2022/03/26 10:19:58;;;;;;;26.00;13.50;;;;;;;14.37;42.09;99533.89;108274;1279;22558;-70
2022/03/26 10:22:34;;;;;;;22.60;13.20;;;;;;;14.45;42.04;99535.31;108279;1278;23072;-70
2022/03/26 10:25:04;;;;;;;19.90;12.90;;;;;;;14.51;41.61;99528.04;108341;1279;22703;-70
2022/03/26 10:27:40;;;;;;;23.00;13.70;;;;;;;14.57;41.45;99533.76;108353;1279;22531;-69
2022/03/26 10:30:07;;;;;;;20.50;11.80;;;;;;;14.63;41.66;99527.75;108323;1279;22538;-70
2022/03/26 10:32:41;;;;;;;20.90;13.50;;;;;;;14.75;41.23;99524.33;108341;1279;23965;-70
2022/03/26 10:35:12;;;;;;;19.80;12.40;;;;;;;14.84;40.64;99520.05;108333;1279;22541;-70
2022/03/26 10:37:46;;;;;;;20.10;12.40;;;;;;;14.86;40.93;99520.95;108306;1279;22559;-70
2022/03/26 10:40:20;;;;;;;20.20;13.10;;;;;;;14.92;40.83;99517.17;108327;1279;22543;-70
2022/03/26 10:43:02;;;;;;;18.40;12.50;;;;;;;15.01;40.73;99513.55;108315;1278;25377;-70
2022/03/26 10:45:32;;;;;;;20.50;12.40;;;;;;;15.18;40.67;99512.55;108340;1279;22725;-72
2022/03/26 10:48:01;;;;;;;22.00;13.10;;;;;;;15.37;40.32;99507.37;108324;1279;23158;-71
2022/03/26 10:50:33;;;;;;;23.40;12.20;;;;;;;15.63;40.35;99505.02;108310;1279;22689;-71
2022/03/26 10:53:13;;;;;;;19.70;12.40;;;;;;;15.84;39.22;99498.36;108348;1279;24278;-70
2022/03/26 10:55:43;;;;;;;20.60;12.70;;;;;;;15.92;38.72;99492.91;108377;1279;22539;-70
2022/03/26 10:58:10;;;;;;;20.90;12.30;;;;;;;15.98;38.77;99486.97;108305;1279;22540;-70
2022/03/26 11:00:37;;;;;;;26.40;11.30;;;;;;;15.99;38.34;99488.13;108360;1279;22565;-70
2022/03/26 11:03:05;;;;;;;17.70;11.10;;;;;;;15.94;37.97;99493.40;108351;1279;22539;-70
2022/03/26 11:05:33;;;;;;;16.40;10.00;;;;;;;15.93;37.79;99491.01;108320;1279;25966;-70
2022/03/26 11:08:02;;;;;;;23.40;10.80;;;;;;;15.91;37.16;99477.67;108347;1279;22617;-70
2022/03/26 11:10:32;;;;;;;23.60;10.60;;;;;;;15.94;37.30;99481.68;108353;1279;22856;-71
2022/03/26 11:13:02;;;;;;;20.00;10.30;;;;;;;15.97;37.19;99472.98;108351;1279;22568;-70